Time;durP1;ratioP1;P1;durP2;ratioP2;P2;SDS_P1;SDS_P2;PMS_P1;PMS_P2;Temp;Humidity;BMP_temperature;BMP_pressure;BME280_temperature;BME280_humidity;BME280_pressure;Samples;Min_cycle;Max_cycle;Signal;HPM_P1;HPM_P2
2023/04/03 00:01:26;;;;;;;2.45;1.15;;;;;;;9.99;63.03;100725.06;1871487;76;21208;-46
2023/04/03 00:03:55;;;;;;;2.00;1.20;;;;;;;10.05;63.32;100727.02;1871677;76;21106;-46
2023/04/03 00:06:25;;;;;;;4.45;1.20;;;;;;;10.13;63.23;100718.84;1871607;76;21487;-46
2023/04/03 00:08:54;;;;;;;4.15;1.12;;;;;;;10.20;63.07;100712.43;1870255;76;21562;-46
2023/04/03 00:11:23;;;;;;;3.52;1.27;;;;;;;10.24;62.91;100714.02;1871618;76;21131;-46
2023/04/03 00:13:51;;;;;;;1.98;0.80;;;;;;;10.29;62.95;100708.59;1871201;76;21100;-46
2023/04/03 00:16:20;;;;;;;3.40;1.30;;;;;;;10.36;62.83;100712.71;1870847;75;21099;-49
2023/04/03 00:18:49;;;;;;;3.92;1.27;;;;;;;10.42;62.86;100719.08;1871103;76;21122;-52
2023/04/03 00:21:17;;;;;;;3.62;1.32;;;;;;;10.43;62.64;100710.24;1871063;76;21004;-51
2023/04/03 00:23:46;;;;;;;7.25;1.27;;;;;;;10.46;62.62;100707.09;1871720;76;21640;-50
2023/04/03 00:26:14;;;;;;;6.25;2.02;;;;;;;10.50;63.10;100700.81;1871199;76;21024;-49
2023/04/03 00:28:43;;;;;;;3.95;1.20;;;;;;;10.53;63.17;100684.44;1871157;76;21083;-49
2023/04/03 00:31:13;;;;;;;5.37;1.55;;;;;;;10.57;63.19;100686.49;1871091;76;21150;-52
2023/04/03 00:33:42;;;;;;;3.85;1.12;;;;;;;10.54;63.04;100689.23;1871588;76;21131;-53
2023/04/03 00:36:13;;;;;;;4.60;1.35;;;;;;;10.55;63.02;100696.20;1871752;75;21033;-57
2023/04/03 00:38:41;;;;;;;3.37;1.22;;;;;;;10.55;63.31;100692.25;1871542;76;21105;-55
2023/04/03 00:41:10;;;;;;;3.08;1.30;;;;;;;10.54;63.15;100691.87;1871461;76;21028;-49
2023/04/03 00:43:39;;;;;;;3.35;1.40;;;;;;;10.53;63.44;100705.94;1872074;76;21017;-49
2023/04/03 00:46:09;;;;;;;3.87;1.30;;;;;;;10.49;63.40;100704.35;1872606;76;21153;-49
2023/04/03 00:48:44;;;;;;;3.20;1.72;;;;;;;10.46;63.45;100699.20;1872689;77;21099;-49
2023/04/03 00:51:27;;;;;;;3.70;1.40;;;;;;;10.41;63.31;100700.23;1872311;75;21024;-49
2023/04/03 00:54:02;;;;;;;4.30;1.62;;;;;;;10.40;63.22;100696.34;1872846;76;21110;-47
2023/04/03 00:56:31;;;;;;;3.55;1.60;;;;;;;10.38;63.56;100694.23;1865430;77;21101;-50
2023/04/03 00:59:06;;;;;;;3.77;1.42;;;;;;;10.38;63.43;100695.11;1872786;76;21478;-50
2023/04/03 01:01:35;;;;;;;2.45;1.40;;;;;;;10.41;63.94;100697.61;1871052;76;21099;-52
2023/04/03 01:04:05;;;;;;;6.92;2.27;;;;;;;10.43;63.63;100698.40;1876372;76;21065;-53
2023/04/03 01:06:37;;;;;;;5.33;1.60;;;;;;;10.42;63.59;100695.83;1876532;76;21024;-49
2023/04/03 01:09:09;;;;;;;8.13;1.60;;;;;;;10.41;63.37;100692.81;1872563;76;21056;-52
2023/04/03 01:11:38;;;;;;;4.85;1.60;;;;;;;10.38;63.34;100693.80;1880472;75;21436;-51
2023/04/03 01:14:06;;;;;;;13.20;3.45;;;;;;;10.37;63.40;100696.02;1872625;77;21027;-49
2023/04/03 01:16:36;;;;;;;17.90;7.60;;;;;;;10.37;63.55;100692.07;1872652;77;21048;-51
2023/04/03 01:19:06;;;;;;;2.33;1.72;;;;;;;10.38;63.77;100692.92;1872587;75;21040;-49
2023/04/03 01:22:13;;;;;;;4.33;1.40;;;;;;;10.39;63.86;100703.39;1872609;75;21040;-48
2023/04/03 01:24:42;;;;;;;2.45;1.42;;;;;;;10.39;63.68;100707.34;1872199;76;21522;-50
2023/04/03 01:27:12;;;;;;;3.72;1.50;;;;;;;10.38;63.55;100711.34;1872669;76;21531;-50
2023/04/03 01:29:43;;;;;;;4.67;1.75;;;;;;;10.36;63.48;100710.55;1872668;75;21431;-51
2023/04/03 01:32:12;;;;;;;6.53;1.90;;;;;;;10.35;63.94;100707.06;1872583;76;21028;-50
2023/04/03 01:34:42;;;;;;;7.42;1.90;;;;;;;10.38;64.24;100712.66;1872485;76;21167;-48
2023/04/03 01:37:11;;;;;;;7.58;1.92;;;;;;;10.41;64.79;100701.55;1872570;76;21020;-49
2023/04/03 01:39:41;;;;;;;4.08;1.60;;;;;;;10.46;64.80;100717.63;1872573;77;21530;-48
2023/04/03 01:42:11;;;;;;;3.08;1.72;;;;;;;10.50;64.72;100716.61;1872733;77;21121;-47
2023/04/03 01:44:41;;;;;;;3.62;1.62;;;;;;;10.52;65.09;100713.45;1872511;75;21040;-51
2023/04/03 01:47:10;;;;;;;5.85;2.22;;;;;;;10.54;65.13;100711.61;1888598;75;21291;-48
2023/04/03 01:49:39;;;;;;;3.45;1.55;;;;;;;10.55;65.36;100715.51;1891285;76;21497;-49
2023/04/03 01:52:08;;;;;;;4.33;1.98;;;;;;;10.56;65.19;100723.79;1859687;77;21015;-48
2023/04/03 01:54:36;;;;;;;6.30;2.00;;;;;;;10.57;65.25;100722.03;1864127;76;21219;-48
2023/04/03 01:57:05;;;;;;;3.50;1.50;;;;;;;10.57;65.27;100719.41;1891260;75;21638;-48
2023/04/03 01:59:35;;;;;;;3.20;1.62;;;;;;;10.59;65.46;100721.52;1891118;76;21236;-49
2023/04/03 02:02:03;;;;;;;2.12;1.30;;;;;;;10.61;65.62;100718.36;1891593;75;21493;-48
2023/04/03 02:04:32;;;;;;;6.42;2.10;;;;;;;10.64;65.49;100724.80;1891385;76;21125;-50
2023/04/03 02:07:01;;;;;;;4.55;1.50;;;;;;;10.66;65.29;100728.26;1891263;75;21031;-52
2023/04/03 02:09:30;;;;;;;6.70;1.60;;;;;;;10.69;65.13;100728.58;1891291;76;21474;-52
2023/04/03 02:11:58;;;;;;;4.33;2.27;;;;;;;10.68;65.11;100731.69;1891256;74;21108;-50
2023/04/03 02:14:27;;;;;;;2.37;1.50;;;;;;;10.69;65.23;100732.06;1891270;76;21153;-48
2023/04/03 02:16:55;;;;;;;3.70;1.80;;;;;;;10.68;65.22;100726.41;1891299;76;21122;-53
2023/04/03 02:19:25;;;;;;;6.58;2.17;;;;;;;10.68;65.24;100725.10;1891311;76;21112;-48
2023/04/03 02:21:53;;;;;;;6.87;1.85;;;;;;;10.68;65.35;100719.83;1891281;76;21023;-48
2023/04/03 02:24:22;;;;;;;6.03;1.40;;;;;;;10.70;65.42;100729.84;1891368;75;21043;-49
2023/04/03 02:26:50;;;;;;;3.47;1.80;;;;;;;10.73;65.54;100734.97;1892010;76;21021;-48
2023/04/03 02:29:19;;;;;;;3.50;2.10;;;;;;;10.76;65.59;100730.05;1893991;75;21575;-50
2023/04/03 02:31:48;;;;;;;2.60;1.42;;;;;;;10.77;66.63;100724.73;1891414;75;21039;-51
2023/04/03 02:34:17;;;;;;;4.60;1.67;;;;;;;10.78;66.23;100714.58;1891432;76;20992;-52
2023/04/03 02:36:46;;;;;;;6.37;1.80;;;;;;;10.80;66.07;100716.69;1891299;75;21051;-53
2023/04/03 02:39:15;;;;;;;5.12;1.98;;;;;;;10.79;66.40;100713.67;1891376;76;21694;-47
2023/04/03 02:41:44;;;;;;;2.52;1.65;;;;;;;10.81;66.49;100721.05;1892550;76;21009;-48
2023/04/03 02:44:15;;;;;;;3.85;1.82;;;;;;;10.80;66.87;100725.05;1894683;76;21133;-50
2023/04/03 02:46:43;;;;;;;6.85;2.40;;;;;;;10.79;66.78;100732.11;1859766;77;21624;-51
2023/04/03 02:49:12;;;;;;;7.12;2.37;;;;;;;10.81;67.32;100721.52;1890824;76;21035;-50
2023/04/03 02:51:41;;;;;;;7.33;1.85;;;;;;;10.82;67.17;100717.95;1891221;74;21152;-48
2023/04/03 02:54:10;;;;;;;3.05;1.60;;;;;;;10.83;67.22;100723.62;1891563;76;21066;-48
2023/04/03 02:56:40;;;;;;;6.95;2.40;;;;;;;10.87;67.56;100725.67;1891383;76;21023;-49
2023/04/03 02:59:08;;;;;;;4.03;2.37;;;;;;;10.90;67.85;100728.17;1891475;76;21008;-49
2023/04/03 03:01:38;;;;;;;5.53;2.58;;;;;;;10.90;67.61;100716.31;1891439;76;21071;-48
2023/04/03 03:04:07;;;;;;;3.45;1.77;;;;;;;10.92;67.81;100718.42;1891243;76;21414;-48
2023/04/03 03:06:36;;;;;;;8.33;2.90;;;;;;;10.93;67.84;100724.10;1891423;76;21131;-54
2023/04/03 03:09:05;;;;;;;4.85;2.42;;;;;;;10.95;67.92;100716.98;1891468;76;21062;-55
2023/04/03 03:11:34;;;;;;;4.65;1.90;;;;;;;10.97;67.85;100717.34;1891456;76;21520;-53
2023/04/03 03:14:04;;;;;;;3.02;1.35;;;;;;;11.00;68.44;100718.98;1893399;74;21445;-54
2023/04/03 03:16:34;;;;;;;2.85;1.55;;;;;;;11.03;69.11;100738.63;1891497;76;21094;-52
2023/04/03 03:19:03;;;;;;;3.37;1.92;;;;;;;11.07;68.79;100733.62;1891453;76;20988;-49
2023/04/03 03:21:32;;;;;;;7.75;2.08;;;;;;;11.12;69.15;100724.19;1891397;75;21067;-51
2023/04/03 03:24:00;;;;;;;5.70;2.60;;;;;;;11.15;69.12;100726.71;1891314;75;21019;-49
2023/04/03 03:26:29;;;;;;;6.90;2.15;;;;;;;11.18;68.83;100735.81;1891484;76;21011;-51
2023/04/03 03:28:58;;;;;;;6.35;2.52;;;;;;;11.19;68.63;100742.78;1891330;76;21430;-53
2023/04/03 03:31:27;;;;;;;5.80;2.85;;;;;;;11.21;68.84;100740.94;1891453;76;21552;-52
2023/04/03 03:33:56;;;;;;;6.17;2.62;;;;;;;11.24;68.70;100742.61;1891518;76;21086;-50
2023/04/03 03:36:24;;;;;;;5.75;2.70;;;;;;;11.24;68.28;100759.74;1891460;76;21011;-50
2023/04/03 03:38:53;;;;;;;4.83;2.12;;;;;;;11.27;68.35;100763.55;1891396;76;21508;-53
2023/04/03 03:41:22;;;;;;;3.90;2.58;;;;;;;11.27;68.09;100776.73;1891402;75;21149;-51
2023/04/03 03:43:51;;;;;;;5.60;2.52;;;;;;;11.28;67.66;100771.87;1891396;76;21566;-50
2023/04/03 03:46:20;;;;;;;4.97;2.35;;;;;;;11.27;67.38;100773.66;1891388;76;21129;-52
2023/04/03 03:48:49;;;;;;;4.30;2.35;;;;;;;11.29;67.27;100778.40;1891302;75;21137;-53
2023/04/03 03:51:18;;;;;;;7.17;2.12;;;;;;;11.30;67.54;100776.14;1891418;76;21489;-56
2023/04/03 03:53:47;;;;;;;5.20;2.35;;;;;;;11.32;67.29;100786.63;1891613;75;21222;-56
2023/04/03 03:56:17;;;;;;;2.58;1.70;;;;;;;11.34;67.26;100788.73;1891245;75;21051;-57
2023/04/03 03:58:46;;;;;;;4.83;1.75;;;;;;;11.35;67.44;100781.23;1891387;76;21129;-58
2023/04/03 04:01:16;;;;;;;6.33;2.12;;;;;;;11.38;67.67;100781.12;1891672;76;21684;-59
2023/04/03 04:03:47;;;;;;;5.50;2.30;;;;;;;11.39;67.51;100776.23;1891159;75;21542;-59
2023/04/03 04:06:19;;;;;;;;;;;;;;;11.41;67.64;100773.06;1893813;75;21631;-46
2023/04/03 04:08:49;;;;;;;5.53;1.65;;;;;;;11.44;67.47;100778.69;1891363;76;20130;-56
2023/04/03 04:11:18;;;;;;;2.00;1.47;;;;;;;11.46;67.74;100773.73;1891364;76;21055;-50
2023/04/03 04:13:47;;;;;;;4.17;1.98;;;;;;;11.50;67.99;100781.91;1890087;76;21121;-49
2023/04/03 04:16:16;;;;;;;5.12;1.25;;;;;;;11.54;67.80;100779.53;1891257;76;21190;-58
2023/04/03 04:18:45;;;;;;;3.30;2.05;;;;;;;11.57;67.93;100783.36;1891342;75;21136;-58
2023/04/03 04:21:13;;;;;;;2.27;1.60;;;;;;;11.61;67.85;100781.45;1891305;76;21023;-50
2023/04/03 04:23:42;;;;;;;1.65;1.17;;;;;;;11.65;67.68;100789.63;1891397;76;21490;-48
2023/04/03 04:26:11;;;;;;;3.30;1.95;;;;;;;11.67;67.58;100788.24;1891362;75;21141;-48
2023/04/03 04:28:40;;;;;;;3.05;1.87;;;;;;;11.71;67.57;100785.86;1891264;76;21494;-57
2023/04/03 04:31:11;;;;;;;1.80;1.40;;;;;;;11.74;67.38;100784.42;1891363;76;21035;-55
2023/04/03 04:33:40;;;;;;;4.83;1.62;;;;;;;11.75;67.35;100780.88;1891248;76;21157;-57
2023/04/03 04:36:09;;;;;;;6.45;1.70;;;;;;;11.79;67.05;100787.73;1891360;76;21027;-49
2023/04/03 04:38:38;;;;;;;2.33;1.67;;;;;;;11.81;66.89;100793.79;1891419;76;21035;-50
2023/04/03 04:41:07;;;;;;;2.37;1.35;;;;;;;11.77;67.25;100782.98;1891222;74;21173;-48
2023/04/03 04:43:36;;;;;;;2.20;1.22;;;;;;;11.75;67.11;100780.88;1891318;76;21607;-50
2023/04/03 04:46:08;;;;;;;4.25;1.98;;;;;;;11.75;66.98;100785.69;1891168;76;21614;-51
2023/04/03 04:48:38;;;;;;;3.90;1.30;;;;;;;11.73;66.95;100782.70;1880079;75;21063;-48
2023/04/03 04:51:08;;;;;;;2.47;1.70;;;;;;;11.72;66.78;100778.36;1872657;75;21564;-49
2023/04/03 04:53:38;;;;;;;3.67;1.80;;;;;;;11.71;66.67;100793.34;1852305;76;21056;-51
2023/04/03 04:56:07;;;;;;;2.77;1.62;;;;;;;11.72;66.48;100799.46;1872652;76;21522;-45
2023/04/03 04:58:36;;;;;;;2.70;1.82;;;;;;;11.74;66.33;100800.25;1872734;75;21071;-57
2023/04/03 05:01:08;;;;;;;2.50;1.25;;;;;;;11.72;66.27;100792.87;1849889;76;21091;-48
2023/04/03 05:03:38;;;;;;;3.02;1.50;;;;;;;11.68;66.38;100803.16;1839734;77;21129;-53
2023/04/03 05:06:08;;;;;;;3.08;1.30;;;;;;;11.65;66.32;100792.73;1839761;78;21173;-52
2023/04/03 05:08:37;;;;;;;2.85;1.55;;;;;;;11.63;66.21;100799.85;1839870;78;21533;-56
2023/04/03 05:11:05;;;;;;;3.08;1.60;;;;;;;11.61;66.20;100788.52;1839766;78;21040;-56
2023/04/03 05:13:35;;;;;;;3.35;1.60;;;;;;;11.61;66.12;100793.32;1863015;76;21447;-49
2023/04/03 05:16:04;;;;;;;3.30;1.62;;;;;;;11.61;66.02;100799.06;1872609;77;21106;-50
2023/04/03 05:18:33;;;;;;;2.60;1.50;;;;;;;11.62;65.98;100803.40;1872737;75;21012;-49
2023/04/03 05:21:04;;;;;;;14.33;4.47;;;;;;;11.65;65.85;100802.81;1872598;76;21129;-46
2023/04/03 05:23:33;;;;;;;2.87;1.80;;;;;;;11.68;65.78;100806.64;1872640;77;21040;-47
2023/04/03 05:26:03;;;;;;;4.95;1.80;;;;;;;11.66;65.87;100805.86;1872478;76;21265;-44
2023/04/03 05:28:32;;;;;;;3.72;1.52;;;;;;;11.65;65.80;100805.92;1872819;76;21075;-46
2023/04/03 05:31:01;;;;;;;3.75;1.52;;;;;;;11.64;65.77;100804.19;1872599;76;21075;-45
2023/04/03 05:33:31;;;;;;;4.30;1.60;;;;;;;11.61;65.70;100813.10;1872456;76;21084;-46
2023/04/03 05:36:05;;;;;;;3.25;1.75;;;;;;;11.57;65.72;100808.41;1872561;77;21483;-47
2023/04/03 05:38:35;;;;;;;3.08;1.40;;;;;;;11.58;65.77;100814.10;1871672;76;21075;-48
2023/04/03 05:41:05;;;;;;;3.77;1.77;;;;;;;11.58;65.51;100814.10;1872588;76;21064;-47
2023/04/03 05:43:37;;;;;;;6.12;1.47;;;;;;;11.60;65.54;100818.00;1837906;77;21083;-50
2023/04/03 05:46:05;;;;;;;1.87;1.27;;;;;;;11.66;65.38;100820.36;1834989;78;21055;-58
2023/04/03 05:48:33;;;;;;;1.82;1.40;;;;;;;11.71;65.61;100814.44;1842135;77;21056;-52
2023/04/03 05:51:02;;;;;;;1.42;1.07;;;;;;;11.73;65.40;100816.98;1872581;77;21249;-51
2023/04/03 05:53:34;;;;;;;6.08;1.10;;;;;;;11.75;65.39;100819.13;1872760;75;21564;-56
2023/04/03 05:56:05;;;;;;;2.02;0.85;;;;;;;11.78;65.21;100807.98;1872658;76;21036;-58
2023/04/03 05:58:35;;;;;;;1.60;1.07;;;;;;;11.87;65.04;100821.69;1872406;76;21059;-51
2023/04/03 06:01:05;;;;;;;4.00;1.50;;;;;;;11.92;64.96;100814.00;1872724;75;21059;-57
2023/04/03 06:03:34;;;;;;;1.92;1.00;;;;;;;11.96;64.79;100824.81;1872746;76;21028;-57
2023/04/03 06:06:05;;;;;;;2.77;1.57;;;;;;;12.03;64.66;100827.20;1872838;77;21130;-57
2023/04/03 06:08:34;;;;;;;2.25;1.30;;;;;;;12.12;64.46;100830.75;1872891;77;21098;-54
2023/04/03 06:11:03;;;;;;;2.08;0.88;;;;;;;12.22;64.24;100835.16;1872834;76;21020;-57
2023/04/03 06:13:33;;;;;;;3.42;1.15;;;;;;;12.29;64.06;100845.84;1872789;77;21000;-55
2023/04/03 06:16:02;;;;;;;3.92;1.62;;;;;;;12.32;63.96;100842.61;1872709;77;21735;-51
2023/04/03 06:18:31;;;;;;;2.70;1.37;;;;;;;12.39;63.77;100845.81;1872951;77;21589;-55
2023/04/03 06:21:00;;;;;;;3.10;1.40;;;;;;;12.47;63.52;100848.13;1872751;77;21475;-58
2023/04/03 06:23:29;;;;;;;2.92;1.20;;;;;;;12.57;63.38;100846.77;1872941;77;21554;-51
2023/04/03 06:25:58;;;;;;;1.95;1.25;;;;;;;12.68;63.05;100846.28;1872789;76;21091;-59
2023/04/03 06:28:26;;;;;;;3.12;1.45;;;;;;;12.72;62.81;100838.13;1872615;77;21110;-52
2023/04/03 06:30:55;;;;;;;2.80;1.17;;;;;;;12.77;62.61;100831.80;1872717;77;21089;-48
2023/04/03 06:33:24;;;;;;;1.87;0.95;;;;;;;12.84;62.56;100832.75;1872844;76;21110;-56
2023/04/03 06:35:58;;;;;;;1.75;0.95;;;;;;;12.98;62.28;100834.73;1872743;77;21052;-56
2023/04/03 06:38:27;;;;;;;2.33;1.12;;;;;;;13.10;62.00;100831.98;1871509;76;21036;-57
2023/04/03 06:40:55;;;;;;;1.55;1.20;;;;;;;13.30;61.62;100838.95;1872496;76;21000;-48
2023/04/03 06:43:24;;;;;;;1.50;0.90;;;;;;;13.46;61.28;100837.30;1872876;76;21113;-47
2023/04/03 06:45:53;;;;;;;1.40;1.20;;;;;;;13.57;60.75;100841.19;1872840;77;21036;-50
2023/04/03 06:48:22;;;;;;;1.17;1.00;;;;;;;13.59;60.56;100841.96;1872956;77;21020;-49
2023/04/03 06:50:50;;;;;;;2.58;1.00;;;;;;;13.59;60.34;100837.52;1872800;76;21584;-49
2023/04/03 06:53:19;;;;;;;2.37;1.10;;;;;;;13.97;60.17;100841.81;1872608;77;21040;-49
2023/04/03 06:55:48;;;;;;;2.05;1.30;;;;;;;14.78;60.18;100837.52;1872734;77;21036;-49
2023/04/03 06:58:17;;;;;;;2.12;1.55;;;;;;;16.13;59.58;100835.50;1872830;77;21012;-50
2023/04/03 07:00:47;;;;;;;1.65;1.10;;;;;;;17.36;57.88;100830.41;1872877;75;21528;-52
2023/04/03 07:03:16;;;;;;;1.30;0.72;;;;;;;18.38;54.81;100835.52;1872591;77;21459;-49
2023/04/03 07:05:44;;;;;;;2.65;0.85;;;;;;;19.13;49.72;100818.63;1872875;77;21495;-51
2023/04/03 07:08:13;;;;;;;3.30;0.55;;;;;;;19.58;48.32;100820.15;1872647;75;21181;-49
2023/04/03 07:10:42;;;;;;;2.08;0.70;;;;;;;20.19;46.55;100810.59;1872855;77;21455;-51
2023/04/03 07:13:10;;;;;;;1.32;0.72;;;;;;;20.76;45.58;100819.47;1872747;77;21026;-49
2023/04/03 07:15:39;;;;;;;0.75;0.60;;;;;;;21.29;43.88;100808.53;1872774;75;21040;-49
2023/04/03 07:18:07;;;;;;;2.75;0.80;;;;;;;21.86;42.73;100804.61;1872748;76;21041;-51
2023/04/03 07:20:36;;;;;;;2.08;0.90;;;;;;;22.09;40.81;100812.50;1872623;77;21036;-52
2023/04/03 07:23:05;;;;;;;1.37;0.82;;;;;;;22.17;38.98;100797.95;1871962;77;21088;-50
2023/04/03 07:25:33;;;;;;;1.62;0.60;;;;;;;21.88;38.29;100805.33;1872761;77;21012;-51
2023/04/03 07:28:03;;;;;;;1.85;1.00;;;;;;;21.68;36.82;100812.88;1872792;77;21016;-55
2023/04/03 07:30:32;;;;;;;2.37;0.90;;;;;;;21.28;37.51;100812.17;1872833;77;21478;-51
2023/04/03 07:33:00;;;;;;;0.62;0.62;;;;;;;20.68;36.65;100815.25;1872554;77;21036;-54
2023/04/03 07:35:29;;;;;;;1.02;0.70;;;;;;;19.89;37.56;100807.65;1872710;77;20997;-53
2023/04/03 07:37:58;;;;;;;1.85;0.75;;;;;;;19.60;38.54;100822.21;1872847;77;21154;-54
2023/04/03 07:40:26;;;;;;;3.02;0.90;;;;;;;19.24;38.70;100808.00;1872889;76;21035;-56
2023/04/03 07:42:56;;;;;;;1.32;0.90;;;;;;;19.12;39.37;100814.24;1872694;75;21012;-57
2023/04/03 07:45:25;;;;;;;3.77;0.93;;;;;;;19.15;39.36;100815.86;1872819;76;21039;-50
2023/04/03 07:47:54;;;;;;;3.05;1.10;;;;;;;19.54;39.82;100824.52;1872674;76;21039;-50
2023/04/03 07:50:23;;;;;;;1.98;0.80;;;;;;;19.75;39.64;100826.91;1879818;76;21090;-49
2023/04/03 07:52:54;;;;;;;1.95;0.75;;;;;;;20.42;39.26;100836.02;1891557;76;21046;-50
2023/04/03 07:55:22;;;;;;;4.53;0.90;;;;;;;21.28;38.72;100830.91;1891433;76;21062;-49
2023/04/03 07:57:51;;;;;;;1.40;0.80;;;;;;;22.22;35.51;100833.23;1891413;75;21459;-48
2023/04/03 08:00:20;;;;;;;1.32;1.20;;;;;;;22.63;34.71;100825.25;1891557;76;21192;-48
2023/04/03 08:02:51;;;;;;;1.40;0.90;;;;;;;23.28;34.60;100821.69;1891513;76;21090;-48
2023/04/03 08:05:20;;;;;;;0.80;0.70;;;;;;;23.89;34.37;100821.38;1891419;76;21074;-50
2023/04/03 08:07:49;;;;;;;0.90;0.82;;;;;;;24.40;33.58;100829.16;1891362;75;21491;-47
2023/04/03 08:10:18;;;;;;;0.80;0.80;;;;;;;24.89;33.54;100820.37;1891586;76;21090;-53
2023/04/03 08:12:48;;;;;;;1.72;0.88;;;;;;;25.04;32.53;100824.23;1891361;75;21043;-55
2023/04/03 08:15:17;;;;;;;2.58;0.53;;;;;;;25.01;31.55;100827.25;1891473;74;21031;-55
2023/04/03 08:17:45;;;;;;;3.75;0.60;;;;;;;24.91;31.58;100829.66;1891443;76;21135;-55
2023/04/03 08:20:14;;;;;;;2.87;0.68;;;;;;;24.98;31.96;100827.55;1891547;76;21011;-55
2023/04/03 08:22:42;;;;;;;1.12;0.60;;;;;;;25.23;31.01;100829.13;1891426;75;21027;-55
2023/04/03 08:25:11;;;;;;;0.88;0.55;;;;;;;25.07;30.20;100819.06;1891240;74;21015;-50
2023/04/03 08:27:40;;;;;;;0.98;0.80;;;;;;;24.57;30.05;100851.30;1891630;76;21591;-52
2023/04/03 08:30:09;;;;;;;1.42;0.75;;;;;;;24.43;30.09;100843.67;1891475;76;21097;-51
2023/04/03 08:32:38;;;;;;;1.45;0.72;;;;;;;24.38;30.96;100840.56;1891573;76;21105;-50
2023/04/03 08:35:07;;;;;;;1.77;0.70;;;;;;;24.55;30.16;100836.27;1890554;76;21023;-52
2023/04/03 08:37:40;;;;;;;4.90;1.10;;;;;;;24.52;30.02;100844.64;1889845;74;21035;-49
2023/04/03 08:40:11;;;;;;;2.02;0.72;;;;;;;24.66;30.17;100858.48;1891716;74;21090;-49
2023/04/03 08:42:47;;;;;;;1.72;0.72;;;;;;;24.30;30.00;100857.96;1891475;75;21140;-49
2023/04/03 08:45:35;;;;;;;4.03;1.40;;;;;;;23.92;30.41;100834.19;1891254;76;21026;-57
2023/04/03 08:48:07;;;;;;;1.17;0.50;;;;;;;24.09;30.95;100867.92;1891518;76;21117;-53
2023/04/03 08:50:38;;;;;;;1.35;0.60;;;;;;;24.40;30.71;100859.63;1891443;76;21129;-48
2023/04/03 08:53:09;;;;;;;2.65;0.98;;;;;;;24.95;31.08;100863.36;1891516;76;21505;-53
2023/04/03 08:55:46;;;;;;;2.90;0.82;;;;;;;25.00;30.35;100843.05;1890947;75;21085;-53
2023/04/03 08:58:24;;;;;;;0.80;0.70;;;;;;;24.98;29.90;100867.95;1891466;76;21556;-50
2023/04/03 09:01:02;;;;;;;3.30;1.00;;;;;;;25.04;30.64;100872.72;1891297;76;21020;-57
2023/04/03 09:03:37;;;;;;;1.20;0.72;;;;;;;24.87;29.79;100874.05;1872790;76;21113;-56
2023/04/03 09:06:17;;;;;;;3.60;1.12;;;;;;;24.78;30.22;100858.28;1891471;76;21040;-55
2023/04/03 09:08:54;;;;;;;4.25;0.88;;;;;;;24.82;30.39;100884.75;1891150;75;21031;-58
2023/04/03 09:11:46;;;;;;;1.65;0.55;;;;;;;24.89;30.19;100882.31;1891526;76;21032;-56
2023/04/03 09:14:35;;;;;;;2.02;0.70;;;;;;;24.98;30.91;100861.21;1891390;76;21019;-51
2023/04/03 09:17:16;;;;;;;2.15;0.72;;;;;;;25.27;30.59;100879.56;1891163;74;21091;-52
2023/04/03 09:19:51;;;;;;;2.45;1.00;;;;;;;25.30;30.36;100867.98;1891340;75;21107;-53
2023/04/03 09:22:23;;;;;;;0.88;0.65;;;;;;;25.25;30.00;100877.05;1857258;75;21164;-49
2023/04/03 09:25:16;;;;;;;2.37;1.22;;;;;;;25.05;30.25;100887.91;1891461;76;21404;-46
2023/04/03 09:27:45;;;;;;;;;;;;;;;24.56;30.48;100892.66;1894133;75;21117;-57
2023/04/03 09:30:16;;;;;;;2.05;0.72;;;;;;;23.85;31.61;100875.61;1891405;75;20102;-51
2023/04/03 09:32:50;;;;;;;3.08;0.88;;;;;;;23.55;32.23;100891.34;1889983;75;21548;-58
2023/04/03 09:35:22;;;;;;;3.08;1.02;;;;;;;23.65;32.17;100895.73;1890631;76;20991;-54
2023/04/03 09:37:57;;;;;;;2.58;0.70;;;;;;;23.80;32.19;100893.50;1891347;75;21517;-54
2023/04/03 09:40:31;;;;;;;1.57;0.98;;;;;;;24.02;32.07;100856.03;1891075;75;21027;-57
2023/04/03 09:43:03;;;;;;;3.83;1.22;;;;;;;23.78;32.18;100898.14;1891512;76;21079;-49
2023/04/03 09:45:34;;;;;;;4.22;1.10;;;;;;;23.87;32.22;100883.88;1891249;76;21536;-51
2023/04/03 09:48:15;;;;;;;2.75;1.00;;;;;;;24.04;32.46;100895.73;1883319;76;21120;-54
2023/04/03 09:50:58;;;;;;;2.87;0.70;;;;;;;24.30;32.16;100913.95;1863876;76;21807;-51
2023/04/03 09:53:41;;;;;;;4.28;1.72;;;;;;;24.43;32.06;100917.68;1891349;76;21043;-56
2023/04/03 09:56:22;;;;;;;2.42;0.93;;;;;;;24.11;31.59;100927.42;1891335;76;21051;-60
2023/04/03 09:59:02;;;;;;;3.65;1.12;;;;;;;23.71;32.46;100942.20;1891360;76;21082;-61
2023/04/03 10:01:34;;;;;;;2.85;1.30;;;;;;;23.21;33.84;100929.34;1891126;75;21078;-53
2023/04/03 10:04:17;;;;;;;1.82;1.37;;;;;;;22.46;35.90;100934.06;1891319;76;21031;-48
2023/04/03 10:06:51;;;;;;;2.08;1.07;;;;;;;22.23;37.03;100961.00;1891272;75;21015;-51
2023/04/03 10:09:23;;;;;;;3.52;2.02;;;;;;;22.14;37.33;100951.05;1891314;76;21537;-53
2023/04/03 10:12:10;;;;;;;3.25;1.20;;;;;;;21.95;37.78;100953.10;1891286;75;21039;-53
2023/04/03 10:14:41;;;;;;;2.80;0.95;;;;;;;21.61;38.57;100956.38;1890727;75;21011;-53
2023/04/03 10:17:28;;;;;;;2.17;0.98;;;;;;;21.23;39.07;100964.33;1889662;75;21176;-51
2023/04/03 10:19:59;;;;;;;3.83;1.10;;;;;;;21.26;39.58;100970.78;1891352;75;21498;-49
2023/04/03 10:22:33;;;;;;;3.52;1.65;;;;;;;21.65;39.12;100947.11;1889835;75;21011;-48
2023/04/03 10:25:17;;;;;;;4.08;1.20;;;;;;;21.23;39.59;100952.28;1890777;75;21125;-49
2023/04/03 10:27:51;;;;;;;3.17;1.10;;;;;;;21.09;39.66;100946.22;1874219;76;21109;-49
2023/04/03 10:30:28;;;;;;;1.62;0.90;;;;;;;21.05;39.80;100968.86;1891362;75;21109;-48
2023/04/03 10:33:16;;;;;;;3.22;1.10;;;;;;;21.08;39.94;100976.66;1891312;75;21095;-47
2023/04/03 10:36:22;;;;;;;4.37;1.30;;;;;;;21.14;39.86;100950.72;1891463;75;21035;-46
2023/04/03 10:39:15;;;;;;;4.22;1.20;;;;;;;21.23;39.75;100972.36;1891450;75;21114;-48
2023/04/03 10:42:02;;;;;;;1.23;0.97;;;;;;;20.83;40.24;100958.50;1860065;77;21039;-49
2023/04/03 10:44:45;;;;;;;7.55;1.00;;;;;;;20.75;40.26;100969.44;1859731;77;21074;-55
2023/04/03 10:47:26;;;;;;;;;;;;;;;20.29;41.11;100992.55;1862490;77;21129;-48
2023/04/03 10:50:18;;;;;;;2.25;1.22;;;;;;;20.40;41.35;100979.22;1858926;77;20120;-48
2023/04/03 10:53:09;;;;;;;2.87;1.85;;;;;;;20.70;40.69;100977.84;1840953;77;21537;-59
2023/04/03 10:55:40;;;;;;;3.08;1.45;;;;;;;20.80;40.47;101010.95;1859862;77;21039;-57
2023/04/03 10:58:12;;;;;;;2.22;1.20;;;;;;;20.64;41.00;101006.42;1859548;77;21051;-46
2023/04/03 11:00:46;;;;;;;1.98;1.30;;;;;;;20.49;41.04;100998.19;1857915;77;21125;-47
2023/04/03 11:03:25;;;;;;;2.83;1.17;;;;;;;20.54;41.46;100986.16;1859724;77;21047;-53
2023/04/03 11:05:57;;;;;;;3.02;1.62;;;;;;;20.48;41.70;100972.42;1859544;77;21102;-55
2023/04/03 11:08:31;;;;;;;1.98;1.37;;;;;;;20.32;42.11;100997.65;1859833;77;21534;-56
2023/04/03 11:11:03;;;;;;;2.83;1.35;;;;;;;20.34;42.09;100975.66;1861745;76;21111;-58
2023/04/03 11:13:43;;;;;;;2.98;1.22;;;;;;;20.19;42.54;101012.43;1859677;76;21010;-55
2023/04/03 11:16:14;;;;;;;1.42;1.20;;;;;;;19.84;43.12;101025.26;1858521;77;21096;-54
2023/04/03 11:18:49;;;;;;;4.05;1.40;;;;;;;19.58;43.55;101024.47;1859590;77;21034;-55
2023/04/03 11:21:31;;;;;;;2.60;1.07;;;;;;;19.05;44.20;101038.03;1859841;77;21445;-54
2023/04/03 11:24:02;;;;;;;8.55;1.37;;;;;;;18.43;45.43;101033.34;1859668;76;21030;-56
2023/04/03 11:26:33;;;;;;;1.35;0.98;;;;;;;17.89;46.75;101031.58;1862124;76;21231;-57
2023/04/03 11:29:05;;;;;;;1.30;0.90;;;;;;;17.51;47.97;101035.34;1891188;75;21114;-50
2023/04/03 11:31:46;;;;;;;2.20;1.50;;;;;;;17.28;48.21;101028.34;1891485;76;21040;-48
2023/04/03 11:34:27;;;;;;;3.85;1.47;;;;;;;16.99;49.11;101032.80;1891463;76;21035;-49
2023/04/03 11:37:01;;;;;;;2.98;1.77;;;;;;;16.63;50.48;101035.84;1891240;76;21043;-47
2023/04/03 11:39:33;;;;;;;2.08;1.12;;;;;;;16.54;50.38;101030.14;1891446;76;21063;-47
2023/04/03 11:42:20;;;;;;;3.67;2.12;;;;;;;16.56;50.48;101032.68;1891413;75;21227;-96
2023/04/03 11:44:49;;;;;;;6.40;1.40;;;;;;;16.61;50.63;101035.93;1891421;76;21147;-47
2023/04/03 11:47:40;;;;;;;1.98;1.47;;;;;;;16.53;50.84;101015.61;1895212;76;21104;-47